Time;durP1;ratioP1;P1;durP2;ratioP2;P2;SDS_P1;SDS_P2;PMS_P1;PMS_P2;Temp;Humidity;BMP_temperature;BMP_pressure;BME280_temperature;BME280_humidity;BME280_pressure;Samples;Min_cycle;Max_cycle;Signal;HPM_P1;HPM_P2
2022/01/13 00:01:35;;;;;;;51.35;16.75;;;;;;;-2.32;100.00;100370.31;4355812;32;20043;-75
2022/01/13 00:04:02;;;;;;;53.10;16.25;;;;;;;-2.15;100.00;100410.22;4355310;32;20487;-77
2022/01/13 00:06:28;;;;;;;57.13;18.42;;;;;;;-2.04;100.00;100418.06;4346673;32;20070;-74
2022/01/13 00:08:54;;;;;;;49.90;14.32;;;;;;;-2.46;100.00;100358.31;4341738;32;20377;-75
2022/01/13 00:11:21;;;;;;;52.00;15.68;;;;;;;-2.30;100.00;100381.56;4341454;33;20078;-75
2022/01/13 00:13:52;;;;;;;64.68;17.45;;;;;;;-2.23;100.00;100381.88;4352443;32;20113;-74
2022/01/13 00:19:04;;;;;;;49.53;15.75;;;;;;;-2.27;100.00;100383.09;4356071;32;20138;-75
2022/01/13 00:21:40;;;;;;;42.78;14.02;;;;;;;-2.31;100.00;100382.53;4354508;32;20327;-75
2022/01/13 00:24:13;;;;;;;44.13;14.30;;;;;;;-2.07;100.00;100428.88;4353172;32;20055;-75
2022/01/13 00:26:40;;;;;;;49.80;16.92;;;;;;;-2.20;100.00;100416.75;4352256;32;20062;-74
2022/01/13 00:29:08;;;;;;;51.08;15.48;;;;;;;-2.25;100.00;100404.91;4341547;33;20040;-75
2022/01/13 00:31:40;;;;;;;37.38;14.45;;;;;;;-1.98;100.00;100449.19;4326121;33;20036;-74
2022/01/13 00:34:07;;;;;;;38.03;12.82;;;;;;;-1.94;100.00;100442.69;4340220;33;20078;-73
2022/01/13 00:36:37;;;;;;;37.03;13.55;;;;;;;-1.97;100.00;100437.66;4340583;33;20044;-74
2022/01/13 00:39:05;;;;;;;43.22;15.02;;;;;;;-1.94;100.00;100420.72;4354795;32;20171;-74
2022/01/13 00:41:32;;;;;;;40.28;14.32;;;;;;;-2.21;100.00;100361.47;4349613;32;20062;-73
2022/01/13 00:44:02;;;;;;;47.85;14.87;;;;;;;-1.94;100.00;100392.53;4353845;32;20060;-73
2022/01/13 00:46:40;;;;;;;40.15;13.48;;;;;;;-2.22;100.00;100360.62;4356238;32;20077;-73
2022/01/13 00:49:07;;;;;;;44.95;14.65;;;;;;;-1.91;100.00;100409.91;4353386;32;20057;-75
2022/01/13 00:51:34;;;;;;;47.65;12.80;;;;;;;-1.91;100.00;100421.28;4353829;32;20059;-73
2022/01/13 00:54:05;;;;;;;41.25;13.27;;;;;;;-1.92;100.00;100403.78;4354732;32;20077;-73
2022/01/13 00:56:35;;;;;;;39.75;13.25;;;;;;;-1.94;100.00;100389.87;4347557;32;20074;-73
2022/01/13 00:59:09;;;;;;;48.25;14.55;;;;;;;-1.88;100.00;100373.50;4338401;33;20036;-73
2022/01/13 01:01:45;;;;;;;47.15;14.00;;;;;;;-1.86;100.00;100354.88;4346389;32;20109;-74
2022/01/13 01:04:12;;;;;;;46.90;12.85;;;;;;;-1.81;100.00;100351.84;4342019;32;20360;-74
2022/01/13 01:06:40;;;;;;;33.72;12.73;;;;;;;-1.98;100.00;100351.50;4355187;32;20039;-74
2022/01/13 01:09:17;;;;;;;46.03;14.75;;;;;;;-1.84;100.00;100369.59;4341622;32;20048;-74
2022/01/13 01:11:47;;;;;;;46.08;14.98;;;;;;;-1.79;100.00;100365.72;4353905;32;20074;-73
2022/01/13 01:14:15;;;;;;;40.70;14.32;;;;;;;-1.77;100.00;100379.63;4340601;33;20162;-74
2022/01/13 01:16:42;;;;;;;38.72;14.30;;;;;;;-2.04;100.00;100352.06;4348912;32;20074;-74
2022/01/13 01:19:11;;;;;;;46.30;15.75;;;;;;;-1.82;100.00;100393.22;4337129;33;20044;-75
2022/01/13 01:26:46;;;;;;;53.08;11.88;;;;;;;-1.93;100.00;100375.72;4339929;33;20069;-76
2022/01/13 01:31:56;;;;;;;37.17;12.25;;;;;;;-1.70;100.00;100407.16;4348866;32;20040;-74
2022/01/13 01:36:55;;;;;;;43.78;12.05;;;;;;;-1.99;100.00;100360.41;4354027;33;20342;-74
2022/01/13 01:39:22;;;;;;;41.30;14.52;;;;;;;-1.67;100.00;100388.41;4354975;33;20065;-74
2022/01/13 01:41:51;;;;;;;48.50;14.77;;;;;;;-1.74;100.00;100369.63;4354779;33;20044;-74
2022/01/13 01:44:34;;;;;;;49.80;15.32;;;;;;;-1.89;100.00;100339.31;4341637;33;20485;-74
2022/01/13 01:47:01;;;;;;;25.58;11.12;;;;;;;-1.73;100.00;100365.19;4355036;32;20070;-75
2022/01/13 01:49:28;;;;;;;39.85;13.73;;;;;;;-1.78;100.00;100367.41;4355663;32;20073;-74
2022/01/13 01:51:59;;;;;;;40.63;13.10;;;;;;;-1.65;100.00;100378.53;4340864;33;20078;-74
2022/01/13 01:54:27;;;;;;;37.58;11.23;;;;;;;-1.95;100.00;100335.41;4353535;33;20061;-74
2022/01/13 01:56:54;;;;;;;34.08;12.43;;;;;;;-1.67;100.00;100373.38;4334193;33;20061;-74
2022/01/13 01:59:25;;;;;;;50.15;14.15;;;;;;;-1.73;100.00;100381.03;4339631;33;20385;-74
2022/01/13 02:01:52;;;;;;;41.60;13.13;;;;;;;-1.97;100.00;100342.63;4340269;33;20048;-74
2022/01/13 02:04:20;;;;;;;44.75;16.55;;;;;;;-1.70;100.00;100396.59;4341303;33;20084;-75
2022/01/13 02:06:46;;;;;;;46.05;17.00;;;;;;;-1.74;100.00;100382.84;4342844;32;20446;-74
2022/01/13 02:09:16;;;;;;;35.30;11.00;;;;;;;-1.71;100.00;100392.28;4344126;32;20072;-75
2022/01/13 02:11:48;;;;;;;36.75;12.25;;;;;;;-1.72;100.00;100403.84;4344041;32;20345;-74
2022/01/13 02:16:51;;;;;;;41.30;14.23;;;;;;;-1.73;100.00;100386.31;4354234;32;20063;-75
2022/01/13 02:19:19;;;;;;;46.58;13.68;;;;;;;-1.89;100.00;100366.53;4351485;32;20103;-75
2022/01/13 02:21:45;;;;;;;37.63;11.85;;;;;;;-1.76;100.00;100376.03;4343758;32;20333;-75
2022/01/13 02:24:12;;;;;;;44.38;14.57;;;;;;;-2.01;100.00;100314.81;4348897;32;20415;-76
2022/01/13 02:26:39;;;;;;;51.37;13.90;;;;;;;-1.95;100.00;100314.28;4354948;32;20039;-75
2022/01/13 02:29:05;;;;;;;43.15;14.38;;;;;;;-1.91;100.00;100293.75;4358062;32;20117;-74
2022/01/13 02:31:32;;;;;;;52.55;15.25;;;;;;;-1.79;100.00;100323.47;4357546;32;20409;-74
2022/01/13 02:33:58;;;;;;;38.63;13.75;;;;;;;-1.81;100.00;100330.72;4343816;32;20101;-75
2022/01/13 02:36:27;;;;;;;41.85;13.15;;;;;;;-1.86;100.00;100329.31;4355309;32;20044;-75
2022/01/13 02:38:55;;;;;;;35.03;12.65;;;;;;;-1.70;100.00;100349.06;4357390;32;21056;-74
2022/01/13 02:41:24;;;;;;;46.37;15.25;;;;;;;-1.94;100.00;100294.84;4357157;32;20077;-74
2022/01/13 02:43:53;;;;;;;37.80;11.85;;;;;;;-1.97;100.00;100295.13;4336329;33;20062;-74
2022/01/13 02:49:09;;;;;;;38.92;15.05;;;;;;;-1.75;100.00;100322.25;4357511;32;20058;-73
2022/01/13 02:51:38;;;;;;;48.78;15.93;;;;;;;-1.89;100.00;100308.47;4355570;32;20043;-73
2022/01/13 02:54:05;;;;;;;46.60;15.77;;;;;;;-1.73;100.00;100344.06;4341580;32;20048;-74
2022/01/13 02:56:32;;;;;;;41.58;14.15;;;;;;;-1.92;100.00;100316.66;4345388;32;20074;-74
2022/01/13 02:58:59;;;;;;;50.90;15.30;;;;;;;-1.77;100.00;100346.16;4342362;33;20090;-73
2022/01/13 03:01:26;;;;;;;55.20;17.50;;;;;;;-1.77;100.00;100342.66;4342376;33;20041;-73
2022/01/13 03:03:52;;;;;;;47.40;17.00;;;;;;;-1.80;100.00;100321.78;4345535;32;20032;-74
2022/01/13 03:06:32;;;;;;;47.00;17.40;;;;;;;-2.10;100.00;100284.00;4355053;32;20033;-74
2022/01/13 03:08:59;;;;;;;48.50;16.02;;;;;;;-2.09;100.00;100293.56;4357141;32;20476;-74
2022/01/13 03:11:33;;;;;;;37.50;14.23;;;;;;;-1.80;100.00;100327.06;4355686;32;20031;-74
2022/01/13 03:14:01;;;;;;;33.60;13.50;;;;;;;-1.86;100.00;100334.59;4354165;32;20046;-76
2022/01/13 03:16:28;;;;;;;48.40;16.50;;;;;;;-1.90;100.00;100319.16;4356171;32;20105;-74
2022/01/13 03:18:55;;;;;;;50.40;15.23;;;;;;;-1.83;100.00;100333.50;4357345;32;20057;-74
2022/01/13 03:21:21;;;;;;;55.25;18.45;;;;;;;-2.09;100.00;100264.53;4350184;32;20061;-74
2022/01/13 03:23:50;;;;;;;39.20;12.30;;;;;;;-2.10;100.00;100284.00;4355596;32;20084;-74
2022/01/13 03:26:16;;;;;;;47.65;14.75;;;;;;;-2.12;100.00;100285.91;4354713;32;20337;-74
2022/01/13 03:29:03;;;;;;;40.38;14.80;;;;;;;-1.90;100.00;100317.38;4356951;32;20028;-74
2022/01/13 03:31:30;;;;;;;43.47;13.52;;;;;;;-2.14;100.00;100278.13;4356105;32;20467;-75
2022/01/13 03:33:57;;;;;;;44.20;16.05;;;;;;;-2.00;100.00;100274.28;4341857;32;20043;-74
2022/01/13 03:36:23;;;;;;;51.83;17.83;;;;;;;-1.76;100.00;100308.19;4342624;32;20410;-74
2022/01/13 03:38:51;;;;;;;49.50;16.27;;;;;;;-2.06;100.00;100259.84;4356631;32;20040;-75
2022/01/13 03:41:19;;;;;;;43.97;18.98;;;;;;;-1.88;100.00;100299.56;4340600;33;20438;-75
2022/01/13 03:43:46;;;;;;;49.17;17.62;;;;;;;-1.90;100.00;100300.66;4340239;33;20385;-74
2022/01/13 03:46:14;;;;;;;54.90;19.00;;;;;;;-1.93;100.00;100301.81;4345952;32;20086;-74
2022/01/13 03:48:41;;;;;;;39.05;15.27;;;;;;;-2.09;100.00;100275.94;4341745;33;20054;-74
2022/01/13 03:51:08;;;;;;;39.08;15.93;;;;;;;-2.13;100.00;100273.72;4341155;33;20102;-74
2022/01/13 03:53:52;;;;;;;43.33;15.63;;;;;;;-2.15;100.00;100262.44;4341572;33;20070;-75
2022/01/13 03:56:46;;;;;;;51.05;19.80;;;;;;;-1.87;100.00;100322.37;4341343;33;20040;-75
2022/01/13 04:00:02;;;;;;;45.12;14.95;;;;;;;-1.84;100.00;100303.59;4353817;32;20058;-76
2022/01/13 04:02:28;;;;;;;45.88;15.75;;;;;;;-1.77;100.00;100288.06;4288725;32;20049;-75
2022/01/13 04:04:55;;;;;;;30.42;10.60;;;;;;;-2.12;100.00;100256.88;4355305;32;20150;-75
2022/01/13 04:07:24;;;;;;;46.05;16.90;;;;;;;-1.90;100.00;100295.38;4355752;32;20032;-75
2022/01/13 04:09:50;;;;;;;47.65;17.08;;;;;;;-1.88;100.00;100294.28;4354472;32;20035;-75
2022/01/13 04:12:20;;;;;;;46.80;18.15;;;;;;;-1.85;100.00;100299.31;4355653;32;20060;-75
2022/01/13 04:14:52;;;;;;;47.97;16.20;;;;;;;-1.84;100.00;100292.19;4353815;32;20053;-75
2022/01/13 04:17:21;;;;;;;48.38;16.15;;;;;;;-1.83;100.00;100294.72;4354913;32;20402;-74
2022/01/13 04:19:49;;;;;;;35.05;13.75;;;;;;;-1.82;100.00;100292.88;4353880;32;20128;-74
2022/01/13 04:22:17;;;;;;;31.87;10.88;;;;;;;-1.93;100.00;100264.84;4343377;32;20028;-74
2022/01/13 04:24:47;;;;;;;28.12;11.68;;;;;;;-2.12;100.00;100238.41;4354183;32;20044;-74
2022/01/13 04:27:24;;;;;;;36.05;13.02;;;;;;;-1.92;100.00;100266.50;4339631;33;20044;-74
2022/01/13 04:30:11;;;;;;;44.25;12.77;;;;;;;-2.07;100.00;100252.88;4352414;32;20055;-73
2022/01/13 04:32:38;;;;;;;47.55;14.40;;;;;;;-1.86;100.00;100249.28;4354561;32;20077;-73
2022/01/13 04:35:06;;;;;;;36.17;14.55;;;;;;;-1.89;100.00;100239.00;4351715;32;20054;-73
2022/01/13 04:37:33;;;;;;;66.78;17.00;;;;;;;-1.81;100.00;100251.50;4341329;32;20058;-74
2022/01/13 04:39:59;;;;;;;37.72;12.75;;;;;;;-2.08;100.00;100235.38;4356000;32;20027;-73
2022/01/13 04:42:31;;;;;;;24.00;10.48;;;;;;;-1.83;100.00;100270.94;4351437;32;20036;-73
2022/01/13 04:44:57;;;;;;;29.37;12.30;;;;;;;-1.81;100.00;100254.13;4355941;32;20043;-73
2022/01/13 04:47:24;;;;;;;33.70;11.43;;;;;;;-1.99;100.00;100217.88;4354420;32;20069;-74
2022/01/13 04:49:51;;;;;;;40.90;16.10;;;;;;;-1.70;100.00;100233.69;4355323;32;20118;-73
2022/01/13 04:52:17;;;;;;;35.15;14.55;;;;;;;-2.03;100.00;100190.06;4353588;32;20032;-73
2022/01/13 04:54:44;;;;;;;31.27;11.90;;;;;;;-1.97;100.00;100183.41;4355967;32;20040;-74
2022/01/13 04:57:18;;;;;;;20.77;9.15;;;;;;;-1.77;100.00;100210.63;4354178;32;20071;-74
2022/01/13 04:59:45;;;;;;;25.80;10.30;;;;;;;-1.76;100.00;100259.81;4355267;32;20390;-74
2022/01/13 05:02:12;;;;;;;35.58;13.30;;;;;;;-1.71;100.00;100252.31;4352354;32;20151;-74
2022/01/13 05:04:39;;;;;;;34.35;11.85;;;;;;;-1.66;100.00;100239.50;4355441;32;20091;-73
2022/01/13 05:07:05;;;;;;;29.90;11.95;;;;;;;-1.59;100.00;100245.09;4355276;32;20061;-74
2022/01/13 05:09:32;;;;;;;14.57;7.50;;;;;;;-1.89;100.00;100202.84;4342247;32;20369;-74
2022/01/13 05:12:01;;;;;;;26.67;13.27;;;;;;;-1.70;100.00;100235.50;4353204;32;20062;-74
2022/01/13 05:14:28;;;;;;;30.23;10.70;;;;;;;-1.62;100.00;100233.00;4337899;33;20053;-74
2022/01/13 05:17:02;;;;;;;29.37;12.02;;;;;;;-1.81;100.00;100183.66;4349075;32;20073;-74
2022/01/13 05:19:36;;;;;;;27.55;12.85;;;;;;;-1.51;100.00;100216.97;4355393;32;20388;-74
2022/01/13 05:22:15;;;;;;;28.12;12.10;;;;;;;-1.51;100.00;100222.25;4341386;32;20193;-73
2022/01/13 05:24:45;;;;;;;30.23;14.00;;;;;;;-1.53;100.00;100197.81;4340020;32;20040;-74
2022/01/13 05:27:13;;;;;;;33.17;11.75;;;;;;;-1.53;100.00;100213.66;4339977;33;20040;-74
2022/01/13 05:29:39;;;;;;;34.17;12.50;;;;;;;-1.46;100.00;100214.72;4338594;33;20032;-75
2022/01/13 05:32:06;;;;;;;30.05;12.10;;;;;;;-1.50;100.00;100208.09;4326513;33;20381;-74
2022/01/13 05:34:33;;;;;;;22.60;9.10;;;;;;;-1.42;100.00;100230.31;4340616;33;20032;-74
2022/01/13 05:36:59;;;;;;;19.92;9.60;;;;;;;-1.50;100.00;100223.94;4340575;33;20065;-73
2022/01/13 05:39:26;;;;;;;17.62;6.72;;;;;;;-1.49;100.00;100230.03;4355131;33;20051;-74
2022/01/13 05:41:53;;;;;;;19.95;8.73;;;;;;;-1.88;100.00;100177.31;4342097;33;20033;-76
2022/01/13 05:44:19;;;;;;;26.67;10.90;;;;;;;-1.50;100.00;100212.53;4339391;33;20071;-73
2022/01/13 05:46:45;;;;;;;28.45;11.25;;;;;;;-1.46;100.00;100204.16;4340419;33;20345;-73
2022/01/13 05:49:12;;;;;;;16.40;9.13;;;;;;;-1.41;100.00;100222.25;4339376;33;20036;-74
2022/01/13 05:51:38;;;;;;;27.02;10.43;;;;;;;-1.65;100.00;100177.81;4350536;33;20078;-73
2022/01/13 05:54:05;;;;;;;32.30;14.45;;;;;;;-1.43;100.00;100218.09;4353177;33;20070;-74
2022/01/13 05:56:32;;;;;;;28.92;11.15;;;;;;;-1.70;100.00;100158.91;4354870;33;20068;-75
2022/01/13 05:58:58;;;;;;;20.83;11.25;;;;;;;-1.56;100.00;100176.97;4354898;33;20116;-74
2022/01/13 06:01:25;;;;;;;27.42;10.57;;;;;;;-1.76;100.00;100143.66;4355096;33;20044;-73
2022/01/13 06:03:51;;;;;;;29.83;10.00;;;;;;;-1.73;100.00;100148.66;4352789;33;20085;-78
2022/01/13 06:06:18;;;;;;;16.25;6.72;;;;;;;-1.44;100.00;100200.56;4353568;33;20094;-72
2022/01/13 06:08:44;;;;;;;34.40;13.80;;;;;;;-1.58;100.00;100189.47;4352523;33;20416;-73
2022/01/13 06:11:11;;;;;;;20.70;9.55;;;;;;;-1.39;100.00;100230.03;4352512;32;20062;-74
2022/01/13 06:13:37;;;;;;;22.87;10.90;;;;;;;-1.62;100.00;100177.53;4351890;32;20048;-73
2022/01/13 06:16:04;;;;;;;17.08;7.75;;;;;;;-1.40;100.00;100234.47;4348422;32;20043;-74
2022/01/13 06:18:31;;;;;;;17.75;7.85;;;;;;;-1.74;100.00;100168.09;4348325;33;20181;-73
2022/01/13 06:20:57;;;;;;;26.05;11.85;;;;;;;-1.48;100.00;100203.50;4339530;32;20040;-73
2022/01/13 06:23:24;;;;;;;26.73;10.35;;;;;;;-1.73;100.00;100146.00;4340916;33;20039;-73
2022/01/13 06:25:51;;;;;;;23.65;10.50;;;;;;;-1.95;100.00;100097.81;4353131;33;20154;-72
2022/01/13 06:28:18;;;;;;;23.60;10.25;;;;;;;-1.43;100.00;100181.09;4351227;32;20036;-73
2022/01/13 06:30:46;;;;;;;11.68;7.05;;;;;;;-1.43;100.00;100176.63;4352652;32;20058;-72
2022/01/13 06:33:13;;;;;;;16.65;7.35;;;;;;;-1.43;100.00;100207.53;4351510;32;20341;-72
2022/01/13 06:35:40;;;;;;;11.50;6.53;;;;;;;-1.38;100.00;100194.72;4353858;33;20062;-73
2022/01/13 06:38:07;;;;;;;14.02;8.38;;;;;;;-1.37;100.00;100164.66;4338884;33;20035;-72
2022/01/13 06:40:33;;;;;;;19.40;9.85;;;;;;;-1.35;100.00;100152.16;4353431;33;20063;-72
2022/01/13 06:43:00;;;;;;;21.67;11.68;;;;;;;-1.38;100.00;100152.44;4336535;33;20102;-73
2022/01/13 06:45:27;;;;;;;26.98;12.37;;;;;;;-1.42;100.00;100143.13;4352543;32;20036;-73
2022/01/13 06:47:53;;;;;;;22.62;10.02;;;;;;;-1.62;100.00;100108.84;4353227;32;20461;-73
2022/01/13 06:50:20;;;;;;;21.90;10.95;;;;;;;-1.40;100.00;100146.47;4493684;27;21317;-74
2022/01/13 06:52:48;;;;;;;24.98;10.13;;;;;;;-1.50;100.00;100123.56;4374067;32;20797;-73
2022/01/13 06:55:15;;;;;;;17.58;8.93;;;;;;;-1.39;100.00;100121.69;4371941;32;20035;-73
2022/01/13 06:57:42;;;;;;;17.83;9.23;;;;;;;-1.69;100.00;100091.91;4372887;32;20052;-72
2022/01/13 07:00:09;;;;;;;14.85;7.80;;;;;;;-1.56;100.00;100081.88;4357830;32;20453;-73
2022/01/13 07:02:36;;;;;;;19.27;9.00;;;;;;;-1.66;100.00;100073.12;4368627;32;20128;-74
2022/01/13 07:05:03;;;;;;;22.37;9.82;;;;;;;-1.54;100.00;100069.34;4373142;32;20043;-72
2022/01/13 07:07:34;;;;;;;23.98;7.65;;;;;;;-1.36;100.00;100092.34;4368657;32;20502;-73
2022/01/13 07:10:03;;;;;;;23.08;10.18;;;;;;;-1.48;100.00;100089.88;4366981;32;20495;-74
2022/01/13 07:12:30;;;;;;;15.02;10.00;;;;;;;-1.93;100.00;99990.31;4365865;32;20047;-74
2022/01/13 07:14:57;;;;;;;27.02;11.27;;;;;;;-1.60;100.00;100071.72;4370422;32;20052;-73
2022/01/13 07:17:25;;;;;;;15.13;7.40;;;;;;;-1.27;100.00;100123.19;4370834;32;20192;-74
2022/01/13 07:19:51;;;;;;;20.77;9.50;;;;;;;-1.57;100.00;100077.56;4368862;32;20059;-74
2022/01/13 07:22:18;;;;;;;18.15;8.88;;;;;;;-1.33;100.00;100118.47;4368210;32;20047;-76
2022/01/13 07:24:45;;;;;;;18.70;9.35;;;;;;;-1.46;100.00;100093.22;4370745;32;20110;-74
2022/01/13 07:27:12;;;;;;;22.25;9.15;;;;;;;-1.33;100.00;100107.91;4371092;32;20399;-73
2022/01/13 07:29:42;;;;;;;16.95;7.47;;;;;;;-1.48;100.00;100079.31;4370820;32;20047;-73
2022/01/13 07:32:10;;;;;;;16.40;7.32;;;;;;;-1.48;100.00;100084.59;4370330;32;20039;-77
2022/01/13 07:34:39;;;;;;;20.55;9.13;;;;;;;-1.43;100.00;100096.56;4357552;32;20383;-72
2022/01/13 07:37:06;;;;;;;19.50;10.07;;;;;;;-1.13;100.00;100140.38;4371200;32;20052;-72
2022/01/13 07:39:35;;;;;;;15.80;8.20;;;;;;;-1.40;100.00;100098.91;4372194;32;20044;-72
2022/01/13 07:42:03;;;;;;;21.15;9.52;;;;;;;-1.39;100.00;100092.63;4370483;32;20032;-71
2022/01/13 07:44:30;;;;;;;22.25;11.30;;;;;;;-1.10;100.00;100127.69;4370108;32;20496;-74
2022/01/13 07:46:58;;;;;;;17.92;8.25;;;;;;;-1.38;100.00;100083.75;4369946;32;20047;-73
2022/01/13 07:49:25;;;;;;;18.77;9.65;;;;;;;-1.38;100.00;100078.44;4371009;32;20054;-72
2022/01/13 07:51:51;;;;;;;13.13;7.50;;;;;;;-1.27;100.00;100086.19;4356576;32;20483;-73
2022/01/13 07:54:26;;;;;;;17.92;8.63;;;;;;;-1.56;100.00;100050.16;4359294;32;20062;-77
2022/01/13 07:56:52;;;;;;;17.20;7.93;;;;;;;-1.08;100.00;100101.09;4362348;32;20122;-73
2022/01/13 07:59:19;;;;;;;17.95;8.05;;;;;;;-1.08;100.00;100122.25;4371760;32;20065;-74
2022/01/13 08:01:46;;;;;;;15.63;8.75;;;;;;;-1.15;100.00;100092.94;4370749;32;20075;-73
2022/01/13 08:04:17;;;;;;;15.77;7.60;;;;;;;-1.04;100.00;100133.34;4371510;32;20047;-74
2022/01/13 08:06:43;;;;;;;25.98;11.10;;;;;;;-1.02;100.00;100112.88;4369692;32;20051;-73
2022/01/13 08:09:09;;;;;;;29.02;11.23;;;;;;;-1.23;100.00;100066.38;4371550;32;20837;-73
2022/01/13 08:11:36;;;;;;;21.67;8.98;;;;;;;-1.12;100.00;100105.88;4370133;32;20043;-73
2022/01/13 08:14:02;;;;;;;21.08;10.43;;;;;;;-1.03;100.00;100140.31;4371535;32;20073;-75
2022/01/13 08:16:33;;;;;;;33.47;11.20;;;;;;;-1.03;100.00;100104.13;4368029;32;20048;-74
2022/01/13 08:21:45;;;;;;;25.23;10.55;;;;;;;-0.92;100.00;100126.91;4369156;32;20435;-72
2022/01/13 08:24:12;;;;;;;26.70;11.57;;;;;;;-0.89;100.00;100092.22;4369124;32;20043;-75
2022/01/13 08:26:39;;;;;;;20.60;8.68;;;;;;;-1.14;100.00;100054.94;4370057;32;20061;-74
2022/01/13 08:29:05;;;;;;;31.92;12.73;;;;;;;-1.23;100.00;100045.25;4371425;32;20040;-74
2022/01/13 08:31:32;;;;;;;19.98;8.52;;;;;;;-0.89;100.00;100121.31;4371029;32;20073;-74
2022/01/13 08:33:59;;;;;;;30.08;11.73;;;;;;;-0.93;100.00;100106.72;4370119;32;20055;-75
2022/01/13 08:36:25;;;;;;;42.13;13.50;;;;;;;-0.83;100.00;100099.56;4365919;32;20116;-74
2022/01/13 08:38:52;;;;;;;28.62;10.73;;;;;;;-0.86;100.00;100099.88;4369995;32;20063;-74
2022/01/13 08:41:20;;;;;;;33.72;11.88;;;;;;;-0.81;100.00;100087.00;4370960;32;20357;-77
2022/01/13 08:43:46;;;;;;;39.75;14.70;;;;;;;-0.79;100.00;100111.50;4362864;32;20069;-74
2022/01/13 08:46:13;;;;;;;43.30;13.52;;;;;;;-0.79;100.00;100100.91;4370307;32;20064;-74
2022/01/13 08:48:39;;;;;;;34.70;13.20;;;;;;;-0.71;100.00;100086.12;4367876;32;20109;-76
2022/01/13 08:51:06;;;;;;;31.67;7.47;;;;;;;-0.73;100.00;100091.56;4369406;32;20106;-74
2022/01/13 08:53:33;;;;;;;29.85;9.50;;;;;;;-0.77;100.00;100096.28;4369982;32;20031;-74
2022/01/13 08:56:00;;;;;;;20.62;8.88;;;;;;;-0.76;100.00;100100.63;4356599;32;20079;-75
2022/01/13 08:58:26;;;;;;;29.30;11.32;;;;;;;-0.67;100.00;100095.41;4370125;32;20178;-77
2022/01/13 09:00:55;;;;;;;69.87;14.32;;;;;;;-1.05;100.00;100050.59;4369300;32;20059;-73
2022/01/13 09:03:22;;;;;;;53.53;14.38;;;;;;;-0.62;100.00;100107.22;4370703;32;20066;-73
2022/01/13 09:05:48;;;;;;;46.55;14.85;;;;;;;-0.60;100.00;100125.56;4370042;32;20039;-74
2022/01/13 09:08:15;;;;;;;34.80;12.85;;;;;;;-0.59;100.00;100100.75;4370320;32;20078;-76
2022/01/13 09:10:48;;;;;;;31.00;11.20;;;;;;;-0.54;100.00;100119.69;4367777;32;20043;-73
2022/01/13 09:13:15;;;;;;;29.15;10.63;;;;;;;-0.79;100.00;100055.94;4370223;32;20068;-74
2022/01/13 09:15:59;;;;;;;28.77;11.45;;;;;;;-0.66;100.00;100067.97;4370022;32;20081;-74
2022/01/13 09:21:15;;;;;;;22.37;10.15;;;;;;;-0.53;100.00;100094.87;4367498;32;20069;-73
2022/01/13 09:23:42;;;;;;;43.72;14.85;;;;;;;-0.55;100.00;100080.97;4370308;32;20197;-73
2022/01/13 09:26:08;;;;;;;49.38;13.77;;;;;;;-0.45;100.00;100092.28;4368296;32;20106;-77
2022/01/13 09:28:35;;;;;;;62.53;17.05;;;;;;;-0.47;100.00;100083.69;4370052;32;20133;-73
2022/01/13 09:31:04;;;;;;;39.67;12.10;;;;;;;-0.71;100.00;100049.09;4370015;32;20170;-73
2022/01/13 09:33:30;;;;;;;10.15;4.72;;;;;;;-0.70;100.00;100046.28;4368330;32;20061;-73
2022/01/13 09:35:58;;;;;;;53.33;14.38;;;;;;;-0.46;100.00;100087.16;4367952;32;20044;-79
2022/01/13 09:38:25;;;;;;;40.10;11.70;;;;;;;-0.33;100.00;100068.28;4356769;32;20947;-73
2022/01/13 09:40:52;;;;;;;66.45;13.98;;;;;;;-0.55;100.00;100038.66;4369319;32;20065;-73
2022/01/13 09:43:25;;;;;;;36.85;13.50;;;;;;;-0.28;100.00;100087.97;4370156;32;20248;-72
2022/01/13 09:45:54;;;;;;;17.92;7.95;;;;;;;-0.43;100.00;100053.31;4367729;32;20354;-72
2022/01/13 09:48:20;;;;;;;29.67;11.63;;;;;;;-0.31;100.00;100050.41;4368683;32;20112;-72
2022/01/13 09:50:48;;;;;;;51.72;15.05;;;;;;;-0.62;100.00;100011.97;4368967;32;20048;-72
2022/01/13 09:53:15;;;;;;;46.22;15.55;;;;;;;-0.28;100.00;100060.69;4370304;32;20390;-74
2022/01/13 09:55:44;;;;;;;102.78;17.73;;;;;;;-0.27;100.00;100054.41;4369351;32;20051;-78
2022/01/13 09:58:12;;;;;;;70.72;13.52;;;;;;;-0.29;100.00;100037.84;4368214;32;20044;-74
2022/01/13 10:00:41;;;;;;;51.00;14.95;;;;;;;-0.21;100.00;100046.69;4369875;32;20048;-74
2022/01/13 10:03:23;;;;;;;84.05;16.12;;;;;;;-0.28;100.00;100034.22;4368349;32;20047;-73
2022/01/13 10:05:55;;;;;;;54.28;15.38;;;;;;;-0.17;100.00;100055.16;4365961;32;20065;-76
2022/01/13 10:08:39;;;;;;;100.78;15.70;;;;;;;-0.07;100.00;100028.56;4369034;32;20406;-71
2022/01/13 10:11:40;;;;;;;51.17;15.70;;;;;;;-0.13;100.00;100008.81;4365413;32;20099;-75
2022/01/13 10:16:57;;;;;;;108.28;23.52;;;;;;;-0.01;100.00;100004.13;4366853;32;20085;-73
2022/01/13 10:19:36;;;;;;;25.25;8.02;;;;;;;0.02;100.00;100021.50;4369949;32;20096;-71
2022/01/13 10:22:05;;;;;;;64.47;18.60;;;;;;;-0.06;100.00;100023.13;4368813;32;20039;-75
2022/01/13 10:24:35;;;;;;;51.63;13.38;;;;;;;-0.23;100.00;99965.75;4357044;32;20348;-78
2022/01/13 10:27:06;;;;;;;89.60;18.92;;;;;;;-0.23;100.00;99990.41;4384058;32;20055;-75
2022/01/13 10:29:45;;;;;;;37.35;12.25;;;;;;;0.05;100.00;100013.22;4388644;32;20039;-73
2022/01/13 10:32:15;;;;;;;74.95;18.55;;;;;;;0.02;100.00;100002.94;4388135;32;20129;-74
2022/01/13 10:34:45;;;;;;;42.30;16.42;;;;;;;0.07;100.00;100005.97;4385189;32;20399;-74
2022/01/13 10:37:15;;;;;;;55.00;14.60;;;;;;;-0.18;100.00;99950.22;4383257;32;20047;-74
2022/01/13 10:40:02;;;;;;;61.22;13.82;;;;;;;0.07;100.00;99974.19;4372538;32;20069;-74
2022/01/13 10:45:17;;;;;;;84.90;16.37;;;;;;;0.11;100.00;99992.28;4372500;32;20085;-74
2022/01/13 10:47:55;;;;;;;76.20;15.35;;;;;;;-0.15;100.00;99934.03;4370214;32;20036;-79
2022/01/13 10:50:27;;;;;;;59.28;15.75;;;;;;;0.12;100.00;99975.38;4371797;32;20028;-75
2022/01/13 10:52:55;;;;;;;61.60;14.45;;;;;;;0.19;100.00;99962.31;4369333;32;20051;-74
2022/01/13 10:55:23;;;;;;;73.20;17.25;;;;;;;-0.08;100.00;99944.81;4371950;32;20076;-77
2022/01/13 10:57:52;;;;;;;54.83;17.40;;;;;;;0.10;100.00;99947.41;4359080;32;20069;-75
2022/01/13 11:00:24;;;;;;;67.47;19.50;;;;;;;0.22;100.00;99955.87;4358187;32;20039;-72
2022/01/13 11:03:14;;;;;;;33.33;13.32;;;;;;;0.23;100.00;99937.19;4372301;32;20085;-74
2022/01/13 11:05:53;;;;;;;77.82;17.52;;;;;;;0.20;100.00;99945.44;4372154;32;20063;-74
2022/01/13 11:08:23;;;;;;;34.70;12.82;;;;;;;0.27;100.00;99937.69;4372103;32;20032;-73
2022/01/13 11:10:52;;;;;;;47.40;14.32;;;;;;;-0.02;100.00;99892.09;4369320;32;20395;-74
2022/01/13 11:13:21;;;;;;;74.68;16.55;;;;;;;0.35;100.00;99941.19;4372058;32;20105;-74
2022/01/13 11:15:53;;;;;;;75.55;22.37;;;;;;;0.07;100.00;99889.47;4370882;32;20069;-75
2022/01/13 11:18:21;;;;;;;60.22;15.80;;;;;;;0.09;100.00;99913.94;4372397;32;20055;-74
2022/01/13 11:20:49;;;;;;;67.85;15.45;;;;;;;0.07;100.00;99910.66;4368181;32;20402;-73
2022/01/13 11:23:17;;;;;;;62.45;20.62;;;;;;;0.36;100.00;99952.63;4371626;32;20077;-75
2022/01/13 11:25:46;;;;;;;87.57;22.23;;;;;;;0.19;100.00;99951.72;4357812;32;20516;-74
2022/01/13 11:28:13;;;;;;;58.05;19.73;;;;;;;0.44;100.00;99970.37;4372583;32;20167;-74
2022/01/13 11:30:40;;;;;;;52.95;17.27;;;;;;;0.28;100.00;99950.78;4356527;32;20459;-74
2022/01/13 11:33:06;;;;;;;98.05;24.70;;;;;;;0.04;100.00;99895.06;4372249;32;20102;-74
2022/01/13 11:35:39;;;;;;;34.38;13.90;;;;;;;0.01;100.00;99892.75;4370779;32;20031;-73
2022/01/13 11:38:06;;;;;;;76.10;18.15;;;;;;;0.31;100.00;99955.75;4358507;32;20031;-78
2022/01/13 11:40:38;;;;;;;22.95;10.27;;;;;;;0.38;100.00;99928.62;4370853;32;20039;-74
2022/01/13 11:43:18;;;;;;;81.95;15.35;;;;;;;0.30;100.00;99914.38;4358509;32;20406;-75